S43HARVEY FLD
METARs for airports near S43, sorted by distance:
W 7 nm 606' KPAE 142153Z 30008KT 10SM CLR 28/13 A3004
N 15 nm 141' KAWO 142156Z 20007KT 10SM 28/14 A3002
S 23 nm 21' KBFI 142153Z 24008KT 10SM CLR 29/13 A3001
S 25 nm 32' KRNT 142153Z 22007G14KT 10SM CLR 29/11 A3001
S 28 nm 432' KSEA 142153Z 20009KT 10SM FEW030 27/12 A3003
NW 34 nm 47' KNUW 142153Z 28006KT 10SM FEW030 17/13 A3005
N 36 nm 145' KBVS 142235Z 00000KT 6SM HZ CLR 27/17 A3002
SW 36 nm 444' KPWT 142156Z 23008KT 10SM CLR 28/16 A3004
SW 42 nm 294' KTIW 142153Z 24008KT 10SM CLR 28/14 A3004
S 48 nm 322' KTCM 142155Z 32010KT 10SM CLR 29/15 A3002
S 48 nm 537' KPLU 142235Z VRB05KT 9SM CLR 31/11 A3003
NW 52 nm 112' KFHR 142153Z 24007KT 10SM CLR 24/12 A3004
S 53 nm 301' KGRF 142155Z 24010KT 10SM FEW200 29/15 A3000
W 54 nm 13' KNOW 142235Z 29013G16KT 10SM CLR 17/13 A3005
N 56 nm 171' KBLI 142153Z 21006KT 10SM CLR 25/13 A3002
W 57 nm 291' KCLM 142153Z 29009KT 10SM CLR 21/13 A3006
NW 58 nm 34' KORS 142235Z 00000KT 9SM CLR 21/15 A3002
SW 58 nm 272' KSHN 142153Z 22017G23KT 10SM CLR 25/13 A3002
SW 64 nm 207' KOLM 142154Z 21011G17KT 10SM CLR 28/12 A3004
NW 69 nm 64' CYYJ 142200Z 13012G18KT 30SM SKC 24/12 A3000
SW 81 nm 177' KCLS 142235Z VRB06KT 10SM CLR 26/10 A3005
E 82 nm 1248' KEAT 142155Z 27009G17KT 10SM CLR 37/05 A2985
SE 82 nm 1763' KELN 142153Z 31021G30KT 10SM CLR 36/06 A2993
NW 88 nm 14' CYVR 142200Z 25005KT 190V280 20SM SKC 22/15 A3002
SW 93 nm 17' KHQM 142232Z 27012KT 10SM OVC009 16/13 A3013
NW 98 nm 92' CYCD 142200Z VRB08KT 30SM SKC 28/14 A3000
W 99 nm 194' KUIL 142153Z 26007KT 10SM OVC008 16/13 A3012
TAFs for airports near S43, sorted by distance:
W 7 nm 606' KPAE KPAE 141725Z 1418/1518 27005KT P6SM SKC
  FM142200 34007KT P6SM SKC
  FM150600 VRB04KT P6SM SKC
  FM151300 22004KT P6SM SCT015
  FM151700 25006KT P6SM SKC
S 23 nm 21' KBFI KBFI 141725Z 1418/1518 26006KT P6SM SKC
  FM150300 VRB03KT P6SM SKC
  FM151300 20004KT P6SM SCT015
  FM151700 22007KT P6SM SKC
S 28 nm 432' KSEA KSEA 142058Z 1421/1524 21008KT P6SM SKC
  FM151300 20004KT P6SM SCT015
  FM151700 22007KT P6SM SKC
NW 34 nm 47' KNUW TAF KNUW 1415/1515 25007KT 9999 SKC QNH2999INS
  TEMPO 1415/1419 8000 BR MIFG FEW010
  FM142100 27009KT 9999 SKC QNH3000INS
  BECMG 1506/1507 VRB06KT 9000 BR SCT009 QNH3002INS TX20/1422Z TN11/1512Z FS30190
SW 36 nm 444' KPWT TAF KPWT 141725Z 1418/1518 22005KT P6SM SKC
  FM150600 19004KT P6SM SKC
  FM151000 20004KT P6SM BKN015
  FM151700 22004KT P6SM SCT025
S 48 nm 322' KTCM TAF
  AMD KTCM 141900Z 1419/1519 23006KT 9999 SKC QNH3003INS
  BECMG 1420/1421 23010G15KT 9999 SKC QNH3003INS
  TEMPO 1421/1524 24015G20KT
  BECMG 1512/1513 20006KT 9999 BKN020 QNH3004INS
  BECMG 1516/1517 20006KT 9999 SKC QNH3011INS TX30/1421Z TN13/1509Z LAST NO
  AMDS AFT 1419 NEXT 1513
S 53 nm 301' KGRF TAF TAF KGRF 122100Z 1221/1403 35007KT 9999 SKC QNH2998INS
  BECMG 1304/1305 36005KT 9999 SKC QNH2998INS
  BECMG 1317/1318 01009KT 9999 SKC QNH2995INS
  BECMG 1401/1402 34005KT 9999 SKC QNH2995INS TX29/1300Z TN14/1313Z
N 56 nm 171' KBLI KBLI 141725Z 1418/1518 19006KT P6SM SKC
W 57 nm 291' KCLM KCLM 141725Z 1418/1518 32009KT P6SM SKC
  FM150000 29010KT P6SM SKC
  FM150900 32006KT P6SM SCT025
SW 64 nm 207' KOLM KOLM 141725Z 1418/1518 23006KT P6SM SKC
  FM150900 20005KT 6SM BR SCT002 BKN020
  FM151700 21005KT P6SM SCT020
E 82 nm 1248' KEAT TAF KEAT 141722Z 1418/1518 28008KT P6SM SKC
  FM142000 30014G22KT P6SM SKC
  FM142300 31021G28KT P6SM SKC
  FM150600 30015KT P6SM SKC
SW 93 nm 17' KHQM KHQM 142105Z 1421/1518 27013KT P6SM BKN010
  FM150100 28010KT P6SM OVC003

Shortcut to this page: http://wxbay.com.

Data may contain errors.